Dardanelle, AR

2:58 PM CST on December 28, 2014 (GMT -0600)
Pleasant Valley | Change Station
CLOSE
Current Station
Personal Weather Station
Location: Dardanelle, AR
Elevation: 329 ft
Nearby Weather Stations

Elev 329 ft 35.21 °N, 93.16 °W | Updated 4 seconds ago

Mostly Cloudy
Mostly Cloudy
41.0 °F
Feels Like 41 °F
N
2.2
Wind Variable Wind from SE
Gusts 3.8 mph

Today
High -- | Low -- °F
--% Chance of Precip.
Yesterday
High -- | Low -- °F
Precip. -- in
7:20 AM 5:08 PM
Waxing Crescent, 51% visible
Pressure 30.17 in
Visibility 10.0 miles
Clouds Clear
Windchill 41 °F
Dew Point 32 °F
Humidity 69%
Rainfall 0.00 in
Snow Depth Not available.
UV 2 out of 12
Pollen 1.60 out of 12
Air Quality Not available.
Flu Activity Not available.
METAR KRUE 282053Z AUTO 00000KT 10SM CLR 04/M02 A3017 RMK AO2 SLP216 T00441022 56016

More Conditions Fewer Conditions

Pressure 30.17 in
Visibility 10.0 miles
Clouds Clear
Windchill 41 °F
Dew Point 32 °F
Humidity 69%
Rainfall 0.00 in
Snow Depth Not available.
UV 2 out of 12
Pollen 1.60 out of 12
Air Quality Not available.
Flu Activity Not available.
METAR KRUE 282053Z AUTO 00000KT 10SM CLR 04/M02 A3017 RMK AO2 SLP216 T00441022 56016

More Conditions Fewer Conditions

10-Day Weather Forecast

Almanac

Astronomy

Dec. 28, 2014 Rise Set
Actual Time
Civil Twilight
Nautical Twilight
Astronomical Twilight
Moon
Length of Visible Light
Length of Day
Tomorrow will be .
, % of the Moon is Illuminated

Today's Extremes

State Highs State Lows

Community

WunderPhotos

Upload Photos

1,781,414 photos uploaded!

WunderBlogs® & News

Nearby

Air Quality

  Air Quality AQ Index Pollutant
Not available.

Snow Depth

Station Depth Elevation

Earthquake Activity

City Distance Mag. Time & Date
Minimum magnitude displayed is 2.5.

Coastal Water Temperatures

Place Temperature

Nearby Weather Stations